createdAt,value
2016-07-10T00:00:02.723Z,1003.84
2016-07-10T00:15:02.732Z,1003.74
2016-07-10T00:30:02.736Z,1003.7
2016-07-10T00:45:07.383Z,1003.55
2016-07-10T01:00:07.323Z,1003.55
2016-07-10T01:15:13.093Z,1003.41
2016-07-10T01:30:13.265Z,1003.48
2016-07-10T01:45:07.376Z,1003.34
2016-07-10T02:00:07.335Z,1002.88
2016-07-10T02:15:07.332Z,1003.06
2016-07-10T02:30:02.745Z,1002.89
2016-07-10T02:45:07.419Z,1002.88
2016-07-10T03:00:13.562Z,1002.88
2016-07-10T03:15:07.691Z,1002.71
2016-07-10T03:30:07.343Z,1002.53
2016-07-10T03:45:07.395Z,1002.6
2016-07-10T04:00:07.338Z,1002.59
2016-07-10T04:15:07.344Z,1002.56
2016-07-10T04:30:07.345Z,1002.63
2016-07-10T04:45:17.331Z,1002.59
2016-07-10T05:00:02.758Z,1002.63
2016-07-10T05:15:06.869Z,1002.56
2016-07-10T05:30:09.076Z,1002.61
2016-07-10T05:45:08.978Z,1002.61
2016-07-10T06:00:15.620Z,1002.64
2016-07-10T06:15:07.708Z,1002.38
2016-07-10T06:30:07.716Z,1002.42
2016-07-10T06:45:17.504Z,1002.28
2016-07-10T07:00:07.361Z,1002.4
2016-07-10T07:15:07.452Z,1002.19
2016-07-10T07:30:02.788Z,1002.35
2016-07-10T07:45:02.798Z,1001.94
2016-07-10T08:00:04.906Z,1001.72
2016-07-10T08:15:04.811Z,1001.45
2016-07-10T08:30:07.905Z,1001.32
2016-07-10T08:45:02.832Z,1001.27
2016-07-10T09:00:09.141Z,1000.93
2016-07-10T09:15:06.603Z,1000.91
2016-07-10T09:30:09.177Z,1000.87
2016-07-10T09:45:04.939Z,1000.75
2016-07-10T10:00:02.846Z,1000.75
2016-07-10T10:15:07.466Z,1000.52
2016-07-10T10:30:04.978Z,1000.54
2016-07-10T10:45:07.010Z,1000.42
2016-07-10T11:00:02.863Z,1000.37
2016-07-10T11:15:02.872Z,1000.3
2016-07-10T11:30:11.190Z,1000.13
2016-07-10T11:45:05.837Z,999.8
2016-07-10T12:00:06.716Z,999.67
2016-07-10T12:15:04.981Z,999.64
2016-07-10T12:30:09.095Z,999.37
2016-07-10T12:45:02.900Z,999.41
2016-07-10T13:00:05.006Z,999.14
2016-07-10T13:15:02.942Z,999.03
2016-07-10T13:30:07.520Z,998.95
2016-07-10T13:45:02.929Z,998.89
2016-07-10T14:00:07.524Z,998.53
2016-07-10T14:15:05.078Z,998.7
2016-07-10T14:30:05.154Z,998.44
2016-07-10T14:45:02.937Z,998.4
2016-07-10T15:00:02.949Z,998.17
2016-07-10T15:15:04.994Z,997.97
2016-07-10T15:30:05.056Z,997.88
2016-07-10T15:45:05.080Z,997.76
2016-07-10T16:00:05.061Z,997.65
2016-07-10T16:15:05.000Z,997.57
2016-07-10T16:30:02.973Z,997.48
2016-07-10T16:45:02.984Z,997.24
2016-07-10T17:00:13.514Z,997.24
2016-07-10T17:15:05.144Z,997.18
2016-07-10T17:30:05.931Z,997.02
2016-07-10T17:45:15.629Z,996.87
2016-07-10T18:00:03.012Z,996.86
2016-07-10T18:15:03.014Z,996.74
2016-07-10T18:30:06.808Z,996.83
2016-07-10T18:45:08.059Z,996.82
2016-07-10T19:00:08.067Z,996.54
2016-07-10T19:15:07.238Z,996.49
2016-07-10T19:30:05.121Z,996.36
2016-07-10T19:45:05.993Z,996.21
2016-07-10T20:00:03.020Z,996.19
2016-07-10T20:15:03.030Z,996.1
2016-07-10T20:30:07.639Z,995.91
2016-07-10T20:45:07.672Z,995.85
2016-07-10T21:00:07.954Z,995.88
2016-07-10T21:15:17.459Z,995.84
2016-07-10T21:30:03.031Z,995.69
2016-07-10T21:45:03.028Z,995.48
2016-07-10T22:00:07.694Z,995.46
2016-07-10T22:15:07.621Z,995.38
2016-07-10T22:30:07.045Z,995.57
2016-07-10T22:45:07.634Z,995.37
2016-07-10T23:00:14.381Z,995.44
2016-07-10T23:15:07.635Z,995.4
2016-07-10T23:30:07.622Z,995.47
2016-07-10T23:45:09.255Z,995.35
